Time;durP1;ratioP1;P1;durP2;ratioP2;P2;SDS_P1;SDS_P2;PMS_P1;PMS_P2;Temp;Humidity;BMP_temperature;BMP_pressure;BME280_temperature;BME280_humidity;BME280_pressure;Samples;Min_cycle;Max_cycle;Signal;HPM_P1;HPM_P2
2024/01/10 00:02:22;;;;;;;17.90;11.67;;;-2.90;65.10;;;;;;968238;144;27345;-86
2024/01/10 00:04:48;;;;;;;16.73;10.90;;;-2.90;65.20;;;;;;966491;144;27387;-87
2024/01/10 00:07:15;;;;;;;20.73;11.73;;;-3.00;65.30;;;;;;971300;144;27431;-86
2024/01/10 00:09:41;;;;;;;18.87;11.00;;;-3.00;65.40;;;;;;971715;143;27338;-86
2024/01/10 00:12:08;;;;;;;15.37;10.97;;;-3.00;65.50;;;;;;968912;144;27288;-86
2024/01/10 00:14:35;;;;;;;21.33;12.13;;;-3.10;65.50;;;;;;969134;144;27270;-87
2024/01/10 00:17:01;;;;;;;21.00;12.03;;;-3.10;65.50;;;;;;969651;143;27320;-89
2024/01/10 00:19:28;;;;;;;20.30;12.00;;;-3.10;65.60;;;;;;964450;144;27322;-89
2024/01/10 00:21:54;;;;;;;18.80;12.20;;;-3.10;65.70;;;;;;968791;143;27369;-89
2024/01/10 00:24:21;;;;;;;14.83;10.23;;;-3.10;65.90;;;;;;970052;143;27220;-88
2024/01/10 00:26:48;;;;;;;20.97;11.47;;;-3.20;65.80;;;;;;967234;143;27323;-89
2024/01/10 00:29:14;;;;;;;19.40;12.70;;;-3.20;65.80;;;;;;968735;144;27315;-89
2024/01/10 00:31:41;;;;;;;23.87;13.20;;;-3.20;65.70;;;;;;967693;143;27238;-88
2024/01/10 00:34:07;;;;;;;17.70;11.83;;;-3.20;65.70;;;;;;968956;144;27263;-88
2024/01/10 00:36:34;;;;;;;17.27;11.63;;;-3.20;65.80;;;;;;927877;150;27385;-86
2024/01/10 00:39:01;;;;;;;19.93;13.40;;;-3.20;65.80;;;;;;935324;150;27338;-89
2024/01/10 00:41:27;;;;;;;18.10;11.20;;;-3.20;65.80;;;;;;926652;150;27276;-88
2024/01/10 00:43:54;;;;;;;20.17;11.70;;;-3.20;65.80;;;;;;969157;144;27309;-88
2024/01/10 00:46:20;;;;;;;18.37;11.90;;;-3.30;65.80;;;;;;970795;144;27382;-88
2024/01/10 00:48:47;;;;;;;21.90;13.73;;;-3.30;65.90;;;;;;964921;144;27432;-88
2024/01/10 00:51:13;;;;;;;20.50;12.47;;;-3.30;65.90;;;;;;966405;143;27322;-89
2024/01/10 00:53:40;;;;;;;20.30;12.03;;;-3.30;66.00;;;;;;969631;144;27738;-89
2024/01/10 00:56:07;;;;;;;18.23;12.30;;;-3.30;66.00;;;;;;969038;143;27386;-88
2024/01/10 00:58:33;;;;;;;18.30;12.67;;;-3.30;66.10;;;;;;967972;143;27330;-86
2024/01/10 01:01:00;;;;;;;18.03;11.90;;;-3.30;66.10;;;;;;973970;143;27336;-90
2024/01/10 01:03:26;;;;;;;20.07;12.50;;;-3.40;66.20;;;;;;970370;143;27363;-89
2024/01/10 01:05:53;;;;;;;22.30;12.07;;;-3.40;66.20;;;;;;969651;143;27297;-89
2024/01/10 01:08:20;;;;;;;20.90;12.23;;;-3.40;66.30;;;;;;969676;143;27413;-88
2024/01/10 01:10:46;;;;;;;18.77;11.97;;;-3.40;66.30;;;;;;969436;144;27334;-89
2024/01/10 01:13:13;;;;;;;20.30;12.33;;;-3.40;66.30;;;;;;969908;143;27405;-90
2024/01/10 01:15:39;;;;;;;19.07;12.33;;;-3.40;66.20;;;;;;970394;143;27211;-89
2024/01/10 01:18:06;;;;;;;18.07;11.57;;;-3.40;66.30;;;;;;972151;143;27345;-89
2024/01/10 01:20:33;;;;;;;18.13;11.77;;;-3.40;66.30;;;;;;973067;143;27403;-90
2024/01/10 01:22:59;;;;;;;20.10;12.00;;;-3.40;66.40;;;;;;969571;143;27323;-90
2024/01/10 01:25:26;;;;;;;20.33;13.10;;;-3.40;66.40;;;;;;970639;143;27251;-87
2024/01/10 01:27:52;;;;;;;19.60;12.60;;;-3.50;66.40;;;;;;970176;143;27253;-89
2024/01/10 01:30:21;;;;;;;21.43;11.73;;;-3.50;66.40;;;;;;970179;143;27292;-88
2024/01/10 01:32:45;;;;;;;23.37;12.20;;;-3.50;66.50;;;;;;971215;143;27338;-85
2024/01/10 01:35:12;;;;;;;21.93;12.97;;;-3.50;66.60;;;;;;969849;143;27337;-89
2024/01/10 01:37:39;;;;;;;23.93;14.07;;;-3.50;66.50;;;;;;970411;143;27364;-90
2024/01/10 01:40:05;;;;;;;22.83;11.67;;;-3.50;65.80;;;;;;971189;143;27348;-89
2024/01/10 01:42:32;;;;;;;19.20;11.73;;;-3.60;66.70;;;;;;969732;143;27376;-90
2024/01/10 01:44:59;;;;;;;23.03;13.27;;;-3.60;66.70;;;;;;970492;143;27263;-90
2024/01/10 01:47:27;;;;;;;22.97;12.50;;;-3.60;66.90;;;;;;973583;143;27228;-90
2024/01/10 01:49:52;;;;;;;20.40;12.70;;;-3.60;66.90;;;;;;971095;144;27235;-89
2024/01/10 01:52:19;;;;;;;20.87;11.97;;;-3.60;67.00;;;;;;969982;143;27391;-86
2024/01/10 01:54:45;;;;;;;23.60;13.37;;;-3.60;67.10;;;;;;970368;143;27973;-90
2024/01/10 01:57:12;;;;;;;24.77;13.53;;;-3.60;66.30;;;;;;970219;143;27285;-90
2024/01/10 01:59:38;;;;;;;20.40;13.47;;;-3.70;67.20;;;;;;969418;143;27782;-89
2024/01/10 02:02:05;;;;;;;20.07;11.90;;;-3.70;67.30;;;;;;971087;143;27386;-89
2024/01/10 02:04:31;;;;;;;22.37;13.57;;;-3.70;67.30;;;;;;969576;143;27421;-90
2024/01/10 02:06:58;;;;;;;17.87;12.83;;;-3.70;67.50;;;;;;972175;143;27408;-88
2024/01/10 02:09:24;;;;;;;22.50;13.03;;;-3.70;67.40;;;;;;969501;143;27465;-88
2024/01/10 02:11:51;;;;;;;22.77;13.30;;;-3.70;67.40;;;;;;968826;143;27297;-88
2024/01/10 02:14:18;;;;;;;18.83;13.10;;;-3.70;67.50;;;;;;970024;143;27307;-88
2024/01/10 02:16:45;;;;;;;19.50;13.27;;;-3.80;67.50;;;;;;971261;143;27430;-83
2024/01/10 02:19:20;;;;;;;21.40;12.50;;;-3.80;67.60;;;;;;969456;144;27323;-83
2024/01/10 02:21:47;;;;;;;20.73;12.43;;;-3.80;67.70;;;;;;966194;144;27235;-84
2024/01/10 02:24:13;;;;;;;20.87;12.60;;;-3.80;67.70;;;;;;968928;144;27342;-83
2024/01/10 02:26:40;;;;;;;22.20;14.13;;;-3.80;67.80;;;;;;970022;144;27330;-82
2024/01/10 02:29:06;;;;;;;22.80;12.67;;;-3.80;67.80;;;;;;968802;144;27387;-82
2024/01/10 02:31:33;;;;;;;22.70;13.80;;;-3.80;67.90;;;;;;970710;144;27352;-83
2024/01/10 02:34:00;;;;;;;22.63;13.17;;;-3.80;67.90;;;;;;971748;143;27270;-83
2024/01/10 02:36:26;;;;;;;26.63;13.17;;;-3.80;67.90;;;;;;974376;143;27317;-84
2024/01/10 02:38:53;;;;;;;24.03;13.80;;;-3.80;68.00;;;;;;974976;144;27292;-87
2024/01/10 02:41:20;;;;;;;19.57;12.93;;;-3.80;68.10;;;;;;975267;144;27267;-86
2024/01/10 02:43:46;;;;;;;25.77;14.23;;;-3.80;68.10;;;;;;975542;143;27353;-87
2024/01/10 02:46:13;;;;;;;21.57;12.70;;;-3.80;68.20;;;;;;975023;144;27249;-86
2024/01/10 02:48:39;;;;;;;24.17;12.90;;;-3.80;68.20;;;;;;974237;144;27330;-88
2024/01/10 02:51:06;;;;;;;22.60;12.70;;;-3.80;68.20;;;;;;973030;144;27314;-87
2024/01/10 02:53:32;;;;;;;25.50;14.50;;;-3.80;68.20;;;;;;970766;144;27373;-87
2024/01/10 02:55:59;;;;;;;23.50;13.67;;;-3.80;68.30;;;;;;974407;144;27229;-87
2024/01/10 02:58:25;;;;;;;23.37;13.83;;;-3.80;68.20;;;;;;972830;143;27414;-85
2024/01/10 03:00:52;;;;;;;21.87;14.03;;;-3.80;68.30;;;;;;970504;144;27444;-88
2024/01/10 03:03:19;;;;;;;22.43;14.67;;;-3.80;68.30;;;;;;974883;144;27385;-87
2024/01/10 03:05:45;;;;;;;20.87;13.70;;;-3.80;68.90;;;;;;972783;144;27367;-87
2024/01/10 03:08:12;;;;;;;25.73;13.33;;;-3.80;68.30;;;;;;973341;144;27330;-86
2024/01/10 03:10:38;;;;;;;24.60;14.27;;;-3.80;68.30;;;;;;974758;144;27437;-88
2024/01/10 03:13:05;;;;;;;23.23;13.00;;;-3.80;69.10;;;;;;971920;144;27342;-87
2024/01/10 03:15:32;;;;;;;20.00;12.87;;;-3.80;68.40;;;;;;973153;144;27247;-87
2024/01/10 03:17:58;;;;;;;24.10;13.00;;;-3.80;68.50;;;;;;975383;144;27287;-86
2024/01/10 03:20:25;;;;;;;22.43;13.37;;;-3.80;68.50;;;;;;973702;144;27346;-85
2024/01/10 03:22:51;;;;;;;21.93;13.67;;;-3.80;68.50;;;;;;975079;144;27446;-87
2024/01/10 03:25:18;;;;;;;22.67;13.07;;;-3.80;68.50;;;;;;975139;144;27577;-88
2024/01/10 03:27:45;;;;;;;22.47;13.83;;;-3.80;68.50;;;;;;972240;144;27321;-87
2024/01/10 03:30:11;;;;;;;22.93;13.30;;;-3.80;68.50;;;;;;973087;144;27355;-86
2024/01/10 03:32:38;;;;;;;21.93;13.93;;;-3.80;68.50;;;;;;970825;144;27326;-88
2024/01/10 03:35:04;;;;;;;22.13;12.97;;;-3.80;68.60;;;;;;971815;144;27735;-88
2024/01/10 03:37:31;;;;;;;23.53;12.57;;;-3.80;68.60;;;;;;973299;144;27320;-87
2024/01/10 03:39:59;;;;;;;22.67;13.97;;;-3.80;68.60;;;;;;974403;144;27348;-87
2024/01/10 03:42:24;;;;;;;24.13;13.10;;;-3.80;68.60;;;;;;972399;144;27390;-87
2024/01/10 03:44:51;;;;;;;23.73;14.30;;;-3.80;68.70;;;;;;969894;144;27234;-87
2024/01/10 03:47:17;;;;;;;22.33;13.63;;;-3.80;68.70;;;;;;970774;144;27278;-88
2024/01/10 03:49:44;;;;;;;25.17;13.50;;;-3.80;68.70;;;;;;969789;144;27356;-87
2024/01/10 03:52:10;;;;;;;22.83;14.47;;;-3.80;68.80;;;;;;974260;144;27302;-83
2024/01/10 03:54:38;;;;;;;26.30;14.97;;;-3.70;68.90;;;;;;972378;144;27320;-88
2024/01/10 03:57:04;;;;;;;24.50;13.47;;;-3.70;68.90;;;;;;973527;144;27317;-88
2024/01/10 03:59:30;;;;;;;20.90;13.33;;;-3.70;68.90;;;;;;973013;144;27240;-88
2024/01/10 04:01:57;;;;;;;23.70;13.20;;;-3.70;69.10;;;;;;974600;144;27321;-86
2024/01/10 04:04:23;;;;;;;23.33;13.93;;;-3.70;68.90;;;;;;972674;144;27379;-88
2024/01/10 04:06:50;;;;;;;23.67;13.97;;;-3.60;68.20;;;;;;972107;144;27279;-88
2024/01/10 04:09:17;;;;;;;23.03;13.90;;;-3.60;68.90;;;;;;973015;144;27318;-88
2024/01/10 04:11:43;;;;;;;20.73;13.80;;;-3.60;69.00;;;;;;931787;151;27433;-86
2024/01/10 04:14:10;;;;;;;21.20;13.57;;;-3.60;68.90;;;;;;972394;144;27401;-88
2024/01/10 04:16:36;;;;;;;17.57;11.77;;;-3.60;68.90;;;;;;973435;144;27351;-88
2024/01/10 04:19:03;;;;;;;23.57;13.83;;;-3.60;68.90;;;;;;971680;144;27306;-87
2024/01/10 04:21:30;;;;;;;22.93;13.50;;;-3.60;68.90;;;;;;971141;144;27756;-87
2024/01/10 04:23:56;;;;;;;20.53;12.80;;;-3.50;69.00;;;;;;972475;144;27393;-84
2024/01/10 04:26:23;;;;;;;18.77;12.70;;;-3.50;68.90;;;;;;971140;144;27404;-88
2024/01/10 04:28:49;;;;;;;22.27;12.47;;;-3.50;69.00;;;;;;973147;144;27227;-87
2024/01/10 04:33:51;;;;;;;24.17;13.63;;;-3.50;68.90;;;;;;990600;140;40166;-87
2024/01/10 04:36:17;;;;;;;19.50;13.07;;;-3.50;69.10;;;;;;973287;144;27340;-86
2024/01/10 04:38:44;;;;;;;21.87;13.47;;;-3.40;69.10;;;;;;969021;144;27273;-84
2024/01/10 04:41:10;;;;;;;19.57;12.70;;;-3.40;69.00;;;;;;973211;144;27293;-86
2024/01/10 04:43:37;;;;;;;18.10;12.87;;;-3.40;68.90;;;;;;972021;144;27327;-85
2024/01/10 04:46:04;;;;;;;20.83;13.37;;;-3.40;69.00;;;;;;973656;144;27305;-84
2024/01/10 04:48:30;;;;;;;23.97;14.03;;;-3.40;69.10;;;;;;972473;144;27350;-85
2024/01/10 04:50:57;;;;;;;23.23;13.50;;;-3.40;69.10;;;;;;972055;144;27339;-85
2024/01/10 04:53:23;;;;;;;23.03;13.23;;;-3.30;69.10;;;;;;973581;144;27316;-85
2024/01/10 04:55:50;;;;;;;24.23;13.97;;;-3.30;69.10;;;;;;973934;144;27322;-84
2024/01/10 04:58:17;;;;;;;25.00;14.23;;;-3.30;69.10;;;;;;973075;144;27282;-87
2024/01/10 05:00:43;;;;;;;21.80;12.57;;;-3.30;69.10;;;;;;974882;144;27339;-87
2024/01/10 05:03:10;;;;;;;22.10;13.53;;;-3.30;69.10;;;;;;971832;144;27322;-85
2024/01/10 05:05:36;;;;;;;21.60;14.40;;;-3.30;69.10;;;;;;973483;144;27346;-87
2024/01/10 05:08:03;;;;;;;19.77;13.53;;;-3.20;69.20;;;;;;971628;144;27311;-88
2024/01/10 05:10:30;;;;;;;21.67;13.00;;;-3.20;69.10;;;;;;963124;147;27296;-87
2024/01/10 05:12:56;;;;;;;21.60;13.63;;;-3.20;69.20;;;;;;961272;147;27302;-86
2024/01/10 05:15:23;;;;;;;23.20;13.63;;;-3.20;69.10;;;;;;961655;145;27318;-87
2024/01/10 05:17:49;;;;;;;21.03;13.17;;;-3.20;69.20;;;;;;961623;147;27443;-84
2024/01/10 05:20:16;;;;;;;22.63;13.10;;;-3.20;69.10;;;;;;960677;147;27807;-88
2024/01/10 05:22:43;;;;;;;20.97;12.73;;;-3.20;69.10;;;;;;962235;145;27282;-86
2024/01/10 05:25:09;;;;;;;22.77;13.10;;;-3.20;69.10;;;;;;964305;147;27354;-85
2024/01/10 05:27:36;;;;;;;23.60;13.53;;;-3.20;69.10;;;;;;963327;147;27421;-87
2024/01/10 05:30:02;;;;;;;19.30;12.53;;;-3.20;69.10;;;;;;961219;145;27320;-87
2024/01/10 05:32:29;;;;;;;23.60;14.33;;;-3.20;69.60;;;;;;964137;146;27294;-86
2024/01/10 05:34:55;;;;;;;21.90;13.27;;;-3.20;69.10;;;;;;967677;146;27321;-85
2024/01/10 05:37:22;;;;;;;21.97;12.97;;;-3.20;69.10;;;;;;968397;146;27320;-87
2024/01/10 05:39:49;;;;;;;18.97;12.30;;;-3.30;68.90;;;;;;969287;146;28496;-88
2024/01/10 05:42:15;;;;;;;22.93;13.73;;;-3.30;69.00;;;;;;962499;146;27303;-87
2024/01/10 05:44:42;;;;;;;20.70;12.97;;;-3.20;69.10;;;;;;961106;148;27320;-86
2024/01/10 05:47:08;;;;;;;23.70;14.00;;;-3.30;68.80;;;;;;959987;147;27804;-84
2024/01/10 05:49:35;;;;;;;24.17;14.23;;;-3.30;69.10;;;;;;959675;148;27806;-82
2024/01/10 05:52:02;;;;;;;20.07;12.87;;;-3.30;69.10;;;;;;958942;147;27284;-83
2024/01/10 05:54:28;;;;;;;24.67;13.97;;;-3.30;69.10;;;;;;961274;147;27387;-83
2024/01/10 05:56:55;;;;;;;19.93;12.87;;;-3.30;69.10;;;;;;960165;147;27298;-84
2024/01/10 05:59:22;;;;;;;25.00;14.60;;;-3.30;69.10;;;;;;960535;146;27322;-83
2024/01/10 06:01:49;;;;;;;23.07;14.03;;;-3.30;69.10;;;;;;960449;147;27407;-83
2024/01/10 06:04:16;;;;;;;21.43;14.13;;;-3.30;69.10;;;;;;961322;148;27317;-84
2024/01/10 06:06:42;;;;;;;23.13;13.27;;;-3.30;69.10;;;;;;963396;147;27259;-84
2024/01/10 06:09:11;;;;;;;22.57;14.63;;;-3.30;69.10;;;;;;961566;146;27338;-84
2024/01/10 06:11:35;;;;;;;21.67;11.33;;;-3.40;69.10;;;;;;960000;147;27396;-85
2024/01/10 06:14:02;;;;;;;20.27;13.20;;;-3.40;68.90;;;;;;960362;147;27455;-84
2024/01/10 06:16:29;;;;;;;25.33;15.10;;;-3.40;68.90;;;;;;960401;146;27371;-84
2024/01/10 06:18:55;;;;;;;24.23;14.47;;;-3.40;68.80;;;;;;960369;146;27314;-84
2024/01/10 06:21:22;;;;;;;23.97;13.73;;;-3.40;68.80;;;;;;960990;147;27268;-85
2024/01/10 06:23:51;;;;;;;22.23;13.70;;;-3.40;68.90;;;;;;961100;148;27443;-85
2024/01/10 06:26:18;;;;;;;24.70;15.00;;;-3.40;68.90;;;;;;960642;147;27371;-84
2024/01/10 06:28:44;;;;;;;22.30;14.23;;;-3.40;68.90;;;;;;963950;145;27376;-85
2024/01/10 06:31:11;;;;;;;21.67;14.40;;;-3.40;69.00;;;;;;962674;146;27437;-85
2024/01/10 06:33:37;;;;;;;22.70;14.40;;;-3.40;69.10;;;;;;963518;147;27925;-84
2024/01/10 06:36:04;;;;;;;24.43;14.03;;;-3.40;69.10;;;;;;961862;148;27230;-84
2024/01/10 06:38:30;;;;;;;22.53;14.07;;;-3.40;69.20;;;;;;962072;148;27327;-85
2024/01/10 06:40:57;;;;;;;25.77;15.20;;;-3.50;69.10;;;;;;960507;147;27272;-84
2024/01/10 06:43:24;;;;;;;24.50;15.33;;;-3.50;69.20;;;;;;962412;147;27321;-84
2024/01/10 06:45:50;;;;;;;26.50;14.00;;;-3.50;69.30;;;;;;963286;148;27387;-84
2024/01/10 06:48:18;;;;;;;24.10;15.33;;;-3.50;69.20;;;;;;960557;147;27401;-84
2024/01/10 06:50:44;;;;;;;23.83;14.20;;;-3.50;69.40;;;;;;963892;147;27303;-85
2024/01/10 06:53:10;;;;;;;28.57;16.63;;;-3.50;69.40;;;;;;962325;147;27411;-84
2024/01/10 06:55:37;;;;;;;24.37;14.57;;;-3.50;69.50;;;;;;961540;146;27308;-84
2024/01/10 06:58:03;;;;;;;23.97;14.40;;;-3.50;69.40;;;;;;961830;147;27295;-85
2024/01/10 07:00:31;;;;;;;24.47;15.90;;;-3.50;69.60;;;;;;960591;148;27271;-85
2024/01/10 07:02:56;;;;;;;24.77;15.23;;;-3.50;69.60;;;;;;960502;147;27383;-85
2024/01/10 07:05:23;;;;;;;27.93;15.40;;;-3.50;69.70;;;;;;963145;147;27413;-84
2024/01/10 07:07:52;;;;;;;26.63;15.00;;;-3.50;69.60;;;;;;961128;146;27380;-84
2024/01/10 07:10:16;;;;;;;26.13;15.73;;;-3.50;68.90;;;;;;960250;147;27426;-84
2024/01/10 07:12:43;;;;;;;22.77;14.90;;;-3.50;69.70;;;;;;960834;147;27286;-84
2024/01/10 07:15:09;;;;;;;27.57;15.90;;;-3.50;69.70;;;;;;963989;147;27444;-84
2024/01/10 07:17:36;;;;;;;25.53;14.60;;;-3.50;69.80;;;;;;961195;148;27259;-84
2024/01/10 07:20:03;;;;;;;24.77;15.07;;;-3.40;69.80;;;;;;963044;147;27263;-85
2024/01/10 07:22:29;;;;;;;27.13;14.70;;;-3.40;69.90;;;;;;959933;147;27357;-86
2024/01/10 07:24:56;;;;;;;25.87;14.63;;;-3.40;69.80;;;;;;959281;148;27416;-85
2024/01/10 07:27:22;;;;;;;21.80;13.23;;;-3.40;69.80;;;;;;960278;146;27315;-85
2024/01/10 07:29:49;;;;;;;25.70;15.10;;;-3.40;69.90;;;;;;962104;146;27240;-85
2024/01/10 07:32:15;;;;;;;20.80;12.87;;;-3.40;69.70;;;;;;962127;147;27379;-86
2024/01/10 07:34:42;;;;;;;25.63;15.20;;;-3.40;69.70;;;;;;962545;147;27366;-86
2024/01/10 07:37:10;;;;;;;19.47;12.77;;;-3.30;69.90;;;;;;958722;147;27444;-84
2024/01/10 07:39:35;;;;;;;20.63;14.70;;;-3.30;70.50;;;;;;960074;147;27392;-83
2024/01/10 07:42:02;;;;;;;25.60;14.30;;;-3.30;69.80;;;;;;959660;147;27275;-84
2024/01/10 07:44:28;;;;;;;24.17;14.90;;;-3.20;69.90;;;;;;961054;146;27373;-86
2024/01/10 07:46:55;;;;;;;23.80;14.70;;;-3.10;70.90;;;;;;960267;148;27455;-84
2024/01/10 07:49:23;;;;;;;23.03;14.50;;;-3.00;70.40;;;;;;961199;146;28134;-85
2024/01/10 07:51:48;;;;;;;22.17;13.17;;;-2.90;70.60;;;;;;960895;146;27274;-84
2024/01/10 07:54:15;;;;;;;24.20;14.83;;;-2.80;70.50;;;;;;962323;146;27263;-84
2024/01/10 07:56:41;;;;;;;22.73;14.00;;;-2.70;70.40;;;;;;961548;148;27426;-84
2024/01/10 07:59:08;;;;;;;20.97;13.40;;;-2.50;70.30;;;;;;962647;148;29177;-84
2024/01/10 08:01:35;;;;;;;22.07;13.10;;;-2.50;70.20;;;;;;956651;146;27351;-84
2024/01/10 08:04:01;;;;;;;20.37;12.63;;;-2.40;70.00;;;;;;958221;147;27255;-84
2024/01/10 08:06:28;;;;;;;24.93;14.53;;;-2.30;70.10;;;;;;960648;147;27314;-85
2024/01/10 08:08:54;;;;;;;25.57;14.40;;;-2.30;69.80;;;;;;961294;147;27472;-86
2024/01/10 08:11:21;;;;;;;20.60;13.97;;;-2.20;69.80;;;;;;962979;147;27219;-86
2024/01/10 08:13:48;;;;;;;22.17;14.40;;;-2.10;69.80;;;;;;960456;148;27870;-86
2024/01/10 08:16:14;;;;;;;20.70;14.53;;;-2.00;69.90;;;;;;962111;147;27308;-85
2024/01/10 08:18:42;;;;;;;20.90;14.43;;;-1.90;70.00;;;;;;962799;147;27351;-86
2024/01/10 08:21:07;;;;;;;21.03;14.07;;;-1.70;70.30;;;;;;961450;147;27416;-87
2024/01/10 08:23:34;;;;;;;24.77;14.80;;;-1.60;70.40;;;;;;961501;148;27339;-87
2024/01/10 08:26:00;;;;;;;20.97;13.90;;;-1.40;70.40;;;;;;959937;147;27305;-84
2024/01/10 08:28:27;;;;;;;22.27;14.60;;;-1.30;70.30;;;;;;961382;146;27337;-84
2024/01/10 08:30:54;;;;;;;23.43;13.83;;;-1.20;70.00;;;;;;961149;147;27841;-84
2024/01/10 08:33:20;;;;;;;24.90;13.80;;;-1.10;69.80;;;;;;959440;148;27304;-85
2024/01/10 08:35:47;;;;;;;22.67;14.43;;;-1.00;69.60;;;;;;960082;146;27359;-84
2024/01/10 08:38:13;;;;;;;22.50;13.77;;;-0.90;69.40;;;;;;960640;146;27431;-84
2024/01/10 08:40:40;;;;;;;21.03;13.07;;;-0.80;69.20;;;;;;962801;148;27673;-85
2024/01/10 08:43:07;;;;;;;24.93;15.13;;;-0.80;69.10;;;;;;961538;147;27263;-85
2024/01/10 08:45:33;;;;;;;20.70;13.90;;;-0.70;69.10;;;;;;962088;147;27611;-85
2024/01/10 08:48:00;;;;;;;19.83;13.23;;;-0.60;69.00;;;;;;961978;147;27272;-84
2024/01/10 08:50:26;;;;;;;24.60;14.67;;;-0.60;68.90;;;;;;961086;148;27403;-85
2024/01/10 08:52:53;;;;;;;21.40;14.17;;;-0.50;68.80;;;;;;963196;147;27313;-84
2024/01/10 08:55:20;;;;;;;18.70;13.03;;;-0.50;68.80;;;;;;962370;148;27292;-85
2024/01/10 08:57:46;;;;;;;18.47;13.80;;;-0.50;68.60;;;;;;961578;146;27348;-84
2024/01/10 09:00:14;;;;;;;19.23;12.03;;;-0.50;68.60;;;;;;960137;147;27325;-84
2024/01/10 09:02:40;;;;;;;21.17;13.57;;;-0.40;68.50;;;;;;962298;148;27401;-83
2024/01/10 09:05:09;;;;;;;21.33;13.00;;;-0.40;68.50;;;;;;961929;147;27310;-84
2024/01/10 09:07:33;;;;;;;21.30;13.93;;;-0.40;68.40;;;;;;960699;147;27303;-85
2024/01/10 09:09:59;;;;;;;19.37;12.93;;;-0.40;68.30;;;;;;961592;148;27405;-84
2024/01/10 09:12:26;;;;;;;21.30;13.00;;;-0.40;68.30;;;;;;963780;148;27331;-84
2024/01/10 09:14:53;;;;;;;20.97;13.60;;;-0.30;68.30;;;;;;961478;147;27430;-85
2024/01/10 09:17:19;;;;;;;18.80;13.73;;;-0.30;68.30;;;;;;960863;148;27266;-85
2024/01/10 09:19:46;;;;;;;18.03;12.50;;;-0.30;68.30;;;;;;962778;147;27307;-86
2024/01/10 09:22:13;;;;;;;23.87;13.93;;;-0.20;68.40;;;;;;963019;147;27290;-83
2024/01/10 09:24:39;;;;;;;22.50;13.93;;;-0.20;68.40;;;;;;958851;147;27356;-85
2024/01/10 09:27:07;;;;;;;18.17;12.93;;;-0.10;68.50;;;;;;962017;147;27267;-85
2024/01/10 09:29:32;;;;;;;21.03;13.30;;;-0.10;68.50;;;;;;960413;146;27408;-84
2024/01/10 09:31:59;;;;;;;18.80;13.40;;;-0.10;68.50;;;;;;962146;147;27320;-84
2024/01/10 09:34:25;;;;;;;19.07;13.53;;;0.00;68.50;;;;;;961763;146;27872;-85
2024/01/10 09:36:52;;;;;;;20.97;13.50;;;0.10;68.60;;;;;;962091;148;27259;-86
2024/01/10 09:39:18;;;;;;;20.10;14.00;;;0.10;68.50;;;;;;961807;148;27887;-83
2024/01/10 09:41:51;;;;;;;18.77;12.67;;;0.20;68.50;;;;;;961172;146;27371;-83
2024/01/10 09:44:20;;;;;;;19.97;12.87;;;0.30;68.50;;;;;;960323;147;27409;-82
2024/01/10 09:46:52;;;;;;;20.17;12.97;;;0.30;68.50;;;;;;962016;147;27292;-82
2024/01/10 09:49:21;;;;;;;21.90;13.23;;;0.40;68.40;;;;;;960899;146;27314;-82
2024/01/10 09:51:45;;;;;;;19.10;13.43;;;0.50;68.30;;;;;;960244;146;27351;-82
2024/01/10 09:54:12;;;;;;;16.90;13.27;;;0.50;68.20;;;;;;961638;146;27259;-82
2024/01/10 09:56:39;;;;;;;21.17;13.03;;;0.60;68.00;;;;;;960736;146;27812;-82
2024/01/10 09:59:06;;;;;;;21.73;14.73;;;0.60;67.80;;;;;;960439;147;27283;-82
2024/01/10 10:01:32;;;;;;;22.43;14.57;;;0.60;67.70;;;;;;957434;148;27441;-82
2024/01/10 10:03:58;;;;;;;19.10;12.90;;;0.60;67.60;;;;;;958395;146;27428;-82
2024/01/10 10:06:25;;;;;;;21.33;13.40;;;0.60;67.50;;;;;;959217;148;27379;-83
2024/01/10 10:08:51;;;;;;;24.00;13.67;;;0.60;67.50;;;;;;958935;148;27375;-82
2024/01/10 10:11:18;;;;;;;18.70;12.27;;;0.60;67.50;;;;;;961327;146;27376;-84
2024/01/10 10:13:45;;;;;;;17.77;12.93;;;0.60;67.50;;;;;;959121;146;27426;-82
2024/01/10 10:16:12;;;;;;;21.60;13.27;;;0.70;67.60;;;;;;961443;148;27404;-82
2024/01/10 10:18:38;;;;;;;19.97;13.47;;;0.70;67.60;;;;;;959572;146;27408;-82
2024/01/10 10:21:11;;;;;;;20.13;13.17;;;0.70;67.70;;;;;;961987;148;27275;-83
2024/01/10 10:23:35;;;;;;;18.37;12.10;;;0.80;67.60;;;;;;959539;146;27318;-83
2024/01/10 10:26:01;;;;;;;19.87;13.37;;;0.80;67.60;;;;;;961639;146;27334;-83
2024/01/10 10:28:31;;;;;;;20.50;13.57;;;0.90;67.80;;;;;;959673;146;27364;-82
2024/01/10 10:30:57;;;;;;;18.83;13.13;;;0.90;67.70;;;;;;960787;147;27259;-82
2024/01/10 10:33:23;;;;;;;18.97;12.63;;;1.00;67.60;;;;;;960684;147;27306;-82
2024/01/10 10:35:50;;;;;;;19.80;13.37;;;1.00;67.60;;;;;;961132;147;27386;-82
2024/01/10 10:38:16;;;;;;;19.40;12.80;;;1.10;67.60;;;;;;961505;146;27326;-82
2024/01/10 10:40:43;;;;;;;18.03;12.10;;;1.20;67.60;;;;;;960932;146;27292;-82
2024/01/10 10:43:10;;;;;;;19.60;12.80;;;1.20;67.50;;;;;;960432;147;27407;-82
2024/01/10 10:45:36;;;;;;;20.67;13.00;;;1.30;67.50;;;;;;958884;147;27346;-81
2024/01/10 10:48:03;;;;;;;17.33;12.30;;;1.30;67.30;;;;;;960323;148;27223;-81
2024/01/10 10:50:30;;;;;;;20.03;13.37;;;1.40;67.30;;;;;;960572;148;27374;-81
2024/01/10 10:52:56;;;;;;;21.53;13.03;;;1.40;67.20;;;;;;958885;147;27298;-82
2024/01/10 10:55:23;;;;;;;17.83;12.40;;;1.50;67.10;;;;;;959590;146;27351;-81
2024/01/10 10:57:49;;;;;;;23.67;13.73;;;1.50;67.00;;;;;;960150;147;27459;-81
2024/01/10 11:00:16;;;;;;;18.90;13.23;;;1.60;67.00;;;;;;959899;147;27339;-81
2024/01/10 11:02:45;;;;;;;22.03;13.43;;;1.60;66.80;;;;;;960362;146;27255;-81
2024/01/10 11:05:09;;;;;;;20.07;12.63;;;1.70;66.80;;;;;;960518;147;27410;-82
2024/01/10 11:07:35;;;;;;;20.07;14.17;;;1.70;67.00;;;;;;959526;146;27339;-81
2024/01/10 11:10:02;;;;;;;20.97;13.93;;;1.80;66.90;;;;;;961127;148;27915;-80
2024/01/10 11:12:41;;;;;;;19.53;12.63;;;1.80;66.80;;;;;;962368;148;27223;-80
2024/01/10 11:15:44;;;;;;;18.27;12.77;;;1.90;66.90;;;;;;958014;148;27239;-81
2024/01/10 11:18:13;;;;;;;17.00;11.73;;;1.90;66.80;;;;;;960863;147;27351;-80
2024/01/10 11:20:59;;;;;;;16.27;11.80;;;2.10;66.90;;;;;;960655;147;27448;-80
2024/01/10 11:23:33;;;;;;;18.07;13.03;;;2.10;66.90;;;;;;959210;147;27264;-81
2024/01/10 11:26:00;;;;;;;18.77;12.27;;;2.20;67.10;;;;;;961156;148;27373;-80
2024/01/10 11:28:27;;;;;;;20.80;13.83;;;2.40;67.20;;;;;;961307;148;27399;-82
2024/01/10 11:30:53;;;;;;;21.17;13.67;;;2.50;67.40;;;;;;961282;146;27306;-80
2024/01/10 11:33:20;;;;;;;23.33;14.07;;;2.60;67.30;;;;;;960920;146;27291;-80
2024/01/10 11:36:14;;;;;;;22.00;13.67;;;2.80;67.10;;;;;;959674;147;27409;-80
2024/01/10 11:38:46;;;;;;;20.30;14.23;;;2.90;66.90;;;;;;957387;146;27347;-86
2024/01/10 11:41:14;;;;;;;17.70;12.53;;;3.10;66.70;;;;;;961453;147;27350;-88
2024/01/10 11:43:40;;;;;;;17.33;12.27;;;3.20;66.30;;;;;;954755;147;27693;-88
2024/01/10 11:46:06;;;;;;;19.17;13.17;;;3.20;65.80;;;;;;960421;148;27325;-89
2024/01/10 11:48:33;;;;;;;16.43;12.33;;;3.20;65.40;;;;;;961578;148;27373;-88
2024/01/10 11:51:00;;;;;;;21.53;12.73;;;3.20;65.00;;;;;;960232;147;27306;-83
2024/01/10 11:53:42;;;;;;;23.37;13.80;;;3.20;64.80;;;;;;962881;147;27456;-87
2024/01/10 11:56:11;;;;;;;18.10;12.47;;;3.10;64.70;;;;;;958296;148;27420;-88
2024/01/10 11:58:52;;;;;;;18.37;12.00;;;3.10;64.80;;;;;;962531;148;27252;-80
2024/01/10 12:01:19;;;;;;;17.23;12.23;;;3.10;64.60;;;;;;911763;154;27333;-80
2024/01/10 12:03:46;;;;;;;17.33;12.77;;;3.00;64.60;;;;;;939425;151;27891;-82
2024/01/10 12:06:12;;;;;;;17.87;11.93;;;2.90;64.60;;;;;;927724;151;27764;-80
2024/01/10 12:08:39;;;;;;;18.17;12.30;;;2.90;64.60;;;;;;923614;153;27333;-80
2024/01/10 12:11:05;;;;;;;16.57;11.97;;;2.90;64.70;;;;;;911204;151;27389;-80
2024/01/10 12:13:32;;;;;;;19.97;13.10;;;2.90;64.70;;;;;;942143;149;27261;-81
2024/01/10 12:15:58;;;;;;;18.17;12.80;;;2.90;64.70;;;;;;941385;148;27434;-80
2024/01/10 12:18:25;;;;;;;20.37;14.20;;;2.90;64.80;;;;;;940992;150;27268;-80
2024/01/10 12:20:52;;;;;;;20.03;13.70;;;3.00;64.90;;;;;;939876;149;27374;-82
2024/01/10 12:23:18;;;;;;;20.27;12.60;;;3.00;64.90;;;;;;941188;148;27392;-82
2024/01/10 12:25:46;;;;;;;16.17;12.20;;;3.00;64.90;;;;;;941294;148;27441;-80
2024/01/10 12:28:11;;;;;;;15.83;10.97;;;3.10;64.90;;;;;;940128;149;27343;-80
2024/01/10 12:30:38;;;;;;;16.57;11.87;;;3.10;64.80;;;;;;942339;150;27404;-80